Time,TemperatureF,DewpointF,PressureIn,WindDirection,WindDirectionDegrees,WindSpeedMPH,WindSpeedGustMPH,Humidity,HourlyPrecipIn,Conditions,Clouds,dailyrainin,SolarRadiationWatts/m^2,SoftwareType,DateUTC
2013-02-05 00:00:00,-3.4,-8.8,29.89,SW,226,2.3,2.3,77,0.00,CLR,FEW,0.00,0.0,WeatherDisplay:10.37,2013-02-05 05:00:00,
2013-02-05 00:01:00,-3.4,-8.8,29.89,SW,225,3.5,3.5,77,0.00,CLR,FEW,0.00,0.0,WeatherDisplay:10.37,2013-02-05 05:01:00,
2013-02-05 00:02:00,-3.4,-9.1,29.89,SW,219,4.0,4.0,76,0.00,CLR,FEW,0.00,0.0,WeatherDisplay:10.37,2013-02-05 05:02:00,
2013-02-05 00:03:00,-3.3,-9.0,29.89,SW,221,3.5,3.5,76,0.00,CLR,FEW,0.00,0.0,WeatherDisplay:10.37,2013-02-05 05:03:00,
2013-02-05 00:08:00,-3.3,-9.0,29.89,SW,214,2.3,2.3,76,0.00,CLR,FEW,0.00,0.0,WeatherDisplay:10.37,2013-02-05 05:08:00,
2013-02-05 00:13:00,-3.5,-9.2,29.89,SW,214,1.1,0.0,76,0.00,CLR,FEW,0.00,0.0,WeatherDisplay:10.37,2013-02-05 05:13:00,
2013-02-05 00:18:00,-3.6,-9.3,29.89,SW,214,0.0,0.0,76,0.00,CLR,FEW,0.00,0.0,WeatherDisplay:10.37,2013-02-05 05:18:00,
2013-02-05 00:23:00,-3.7,-9.4,29.89,SW,216,0.0,0.0,76,0.00,CLR,FEW,0.00,0.0,WeatherDisplay:10.37,2013-02-05 05:23:00,
2013-02-05 00:28:00,-3.8,-9.5,29.89,SW,216,3.5,3.5,76,0.00,CLR,FEW,0.00,0.0,WeatherDisplay:10.37,2013-02-05 05:28:00,
2013-02-05 00:33:00,-3.8,-9.5,29.89,SW,216,1.1,0.0,76,0.00,CLR,FEW,0.00,0.0,WeatherDisplay:10.37,2013-02-05 05:33:00,
2013-02-05 00:38:00,-3.8,-9.7,29.89,SSW,211,1.1,0.0,75,0.00,CLR,FEW,0.00,0.0,WeatherDisplay:10.37,2013-02-05 05:38:00,
2013-02-05 00:43:00,-4.0,-9.7,29.90,SSW,211,2.3,2.3,76,0.00,CLR,FEW,0.00,0.0,WeatherDisplay:10.37,2013-02-05 05:43:00,
2013-02-05 00:48:00,-4.2,-9.6,29.90,SSW,211,0.0,0.0,77,0.00,CLR,FEW,0.00,0.0,WeatherDisplay:10.37,2013-02-05 05:48:00,
2013-02-05 00:53:00,-4.5,-9.9,29.90,SSW,211,0.0,0.0,77,0.00,CLR,FEW,0.00,0.0,WeatherDisplay:10.37,2013-02-05 05:53:00,
2013-02-05 00:58:00,-4.6,-10.0,29.90,SSW,211,2.3,2.3,77,0.00,CLR,FEW,0.00,0.0,WeatherDisplay:10.37,2013-02-05 05:58:00,
2013-02-05 01:03:00,-4.7,-9.8,29.90,WNW,297,3.0,3.0,78,0.00,FEW,,0.00,0.0,WeatherDisplay:10.37,2013-02-05 06:03:00,
2013-02-05 01:08:00,-4.6,-10.0,29.90,SW,227,1.1,0.0,77,0.00,FEW,,0.00,0.0,WeatherDisplay:10.37,2013-02-05 06:08:00,
2013-02-05 01:13:00,-4.6,-10.0,29.91,SW,227,0.0,0.0,77,0.00,FEW,,0.00,0.0,WeatherDisplay:10.37,2013-02-05 06:13:00,
2013-02-05 01:18:00,-4.7,-9.8,29.91,SW,227,0.0,0.0,78,0.00,FEW,,0.00,0.0,WeatherDisplay:10.37,2013-02-05 06:18:00,
2013-02-05 01:23:00,-4.8,-10.2,29.91,SW,235,2.0,2.0,77,0.00,FEW,,0.00,0.0,WeatherDisplay:10.37,2013-02-05 06:23:00,
2013-02-05 01:28:00,-4.8,-10.2,29.91,WNW,290,1.1,1.1,77,0.00,FEW,,0.00,0.0,WeatherDisplay:10.37,2013-02-05 06:28:00,
2013-02-05 01:33:00,-4.8,-10.2,29.92,West,278,0.0,0.0,77,0.00,FEW,,0.00,0.0,WeatherDisplay:10.37,2013-02-05 06:33:00,
2013-02-05 01:38:00,-4.7,-10.1,29.92,WSW,240,1.1,1.1,77,0.00,FEW,,0.00,0.0,WeatherDisplay:10.37,2013-02-05 06:38:00,
2013-02-05 01:43:00,-4.7,-10.1,29.92,WSW,239,0.0,0.0,77,0.00,FEW,,0.00,0.0,WeatherDisplay:10.37,2013-02-05 06:43:00,
2013-02-05 01:48:00,-4.8,-9.9,29.92,WSW,239,0.0,0.0,78,0.00,FEW,,0.00,0.0,WeatherDisplay:10.37,2013-02-05 06:48:00,
2013-02-05 01:53:00,-5.1,-10.2,29.92,WSW,239,0.0,0.0,78,0.00,FEW,,0.00,0.0,WeatherDisplay:10.37,2013-02-05 06:53:00,
2013-02-05 01:58:00,-5.3,-10.1,29.92,WSW,239,0.0,0.0,79,0.00,FEW,,0.00,0.0,WeatherDisplay:10.37,2013-02-05 06:58:00,
2013-02-05 02:03:00,-5.4,-10.2,29.93,WSW,240,2.3,2.3,79,0.00,CLR,FEW,0.00,0.0,WeatherDisplay:10.37,2013-02-05 07:03:00,
2013-02-05 02:08:00,-5.6,-10.4,29.93,WSW,240,0.0,0.0,79,0.00,CLR,FEW,0.00,0.0,WeatherDisplay:10.37,2013-02-05 07:08:00,
2013-02-05 02:13:00,-5.6,-10.4,29.93,WSW,240,1.1,0.0,79,0.00,CLR,FEW,0.00,0.0,WeatherDisplay:10.37,2013-02-05 07:13:00,
2013-02-05 02:18:00,-5.6,-10.4,29.93,WSW,238,0.0,0.0,79,0.00,CLR,FEW,0.00,0.0,WeatherDisplay:10.37,2013-02-05 07:18:00,
2013-02-05 02:23:00,-5.6,-10.4,29.93,WNW,283,2.3,2.3,79,0.00,CLR,FEW,0.00,0.0,WeatherDisplay:10.37,2013-02-05 07:23:00,
2013-02-05 02:28:00,-5.6,-10.4,29.93,WNW,283,0.0,0.0,79,0.00,CLR,FEW,0.00,0.0,WeatherDisplay:10.37,2013-02-05 07:28:00,
2013-02-05 02:33:00,-5.6,-10.4,29.93,WNW,282,0.0,0.0,79,0.00,CLR,FEW,0.00,0.0,WeatherDisplay:10.37,2013-02-05 07:33:00,
2013-02-05 02:38:00,-5.7,-10.5,29.93,WSW,242,4.6,4.6,79,0.00,CLR,FEW,0.00,0.0,WeatherDisplay:10.37,2013-02-05 07:38:00,
2013-02-05 02:43:00,-5.8,-10.6,29.92,WSW,242,0.0,0.0,79,0.00,CLR,FEW,0.00,0.0,WeatherDisplay:10.37,2013-02-05 07:43:00,
2013-02-05 02:48:00,-5.8,-10.6,29.93,WSW,242,0.0,0.0,79,0.00,CLR,FEW,0.00,0.0,WeatherDisplay:10.37,2013-02-05 07:48:00,
2013-02-05 02:53:00,-5.9,-10.7,29.93,SW,223,4.0,4.0,79,0.00,CLR,FEW,0.00,0.0,WeatherDisplay:10.37,2013-02-05 07:53:00,
2013-02-05 02:58:00,-5.9,-10.7,29.93,SW,214,2.3,2.3,79,0.00,CLR,FEW,0.00,0.0,WeatherDisplay:10.37,2013-02-05 07:58:00,
2013-02-05 03:03:00,-6.0,-10.8,29.93,SW,214,2.3,0.0,79,0.00,CLR,FEW,0.00,0.0,WeatherDisplay:10.37,2013-02-05 08:03:00,
2013-02-05 03:08:00,-6.3,-11.1,29.93,SW,215,0.0,0.0,79,0.00,CLR,FEW,0.00,0.0,WeatherDisplay:10.37,2013-02-05 08:08:00,
2013-02-05 03:13:00,-6.5,-11.1,29.93,SW,215,1.1,0.0,80,0.00,CLR,FEW,0.00,0.0,WeatherDisplay:10.37,2013-02-05 08:13:00,
2013-02-05 03:18:00,-6.6,-11.2,29.93,SW,215,0.0,0.0,80,0.00,CLR,FEW,0.00,0.0,WeatherDisplay:10.37,2013-02-05 08:18:00,
2013-02-05 03:23:00,-6.7,-11.0,29.93,SW,215,0.0,0.0,81,0.00,CLR,FEW,0.00,0.0,WeatherDisplay:10.37,2013-02-05 08:23:00,
2013-02-05 03:28:00,-6.8,-8.5,29.93,SSW,211,0.0,0.0,92,0.00,CLR,FEW,0.00,0.0,WeatherDisplay:10.37,2013-02-05 08:28:00,
2013-02-05 03:33:00,-7.0,-11.3,29.93,SSW,213,0.0,0.0,81,0.00,CLR,FEW,0.00,0.0,WeatherDisplay:10.37,2013-02-05 08:33:00,
2013-02-05 03:38:00,-7.1,-11.4,29.93,SSW,213,2.0,2.0,81,0.00,CLR,FEW,0.00,0.0,WeatherDisplay:10.37,2013-02-05 08:38:00,
2013-02-05 03:43:00,-7.2,-11.5,29.93,SSW,213,0.0,0.0,81,0.00,CLR,FEW,0.00,0.0,WeatherDisplay:10.37,2013-02-05 08:43:00,
2013-02-05 03:48:00,-7.2,-11.5,29.93,SSW,213,0.0,0.0,81,0.00,CLR,FEW,0.00,0.0,WeatherDisplay:10.37,2013-02-05 08:48:00,
2013-02-05 03:53:00,-7.3,-11.3,29.94,SW,214,0.0,0.0,82,0.00,CLR,FEW,0.00,0.0,WeatherDisplay:10.37,2013-02-05 08:53:00,
2013-02-05 03:58:00,-7.3,-11.3,29.94,SW,214,1.0,0.0,82,0.00,CLR,FEW,0.00,0.0,WeatherDisplay:10.37,2013-02-05 08:58:00,
2013-02-05 04:03:00,-7.4,-11.4,29.94,WSW,249,3.5,3.5,82,0.00,CLR,FEW,0.00,0.0,WeatherDisplay:10.37,2013-02-05 09:03:00,
2013-02-05 04:08:00,-7.4,-11.4,29.94,WSW,249,0.0,0.0,82,0.00,CLR,FEW,0.00,0.0,WeatherDisplay:10.37,2013-02-05 09:08:00,
2013-02-05 04:13:00,-7.5,-11.5,29.95,WSW,250,0.0,0.0,82,0.00,CLR,FEW,0.00,0.0,WeatherDisplay:10.37,2013-02-05 09:13:00,
2013-02-05 04:18:00,-7.5,-11.5,29.94,WSW,251,0.0,0.0,82,0.00,CLR,FEW,0.00,0.0,WeatherDisplay:10.37,2013-02-05 09:18:00,
2013-02-05 04:23:00,-7.5,-11.5,29.95,WSW,250,1.0,1.0,82,0.00,CLR,FEW,0.00,0.0,WeatherDisplay:10.37,2013-02-05 09:23:00,
2013-02-05 04:28:00,-7.6,-11.6,29.95,West,271,0.0,0.0,82,0.00,CLR,FEW,0.00,0.0,WeatherDisplay:10.37,2013-02-05 09:28:00,
2013-02-05 04:33:00,-7.6,-11.6,29.95,West,272,1.1,0.0,82,0.00,CLR,FEW,0.00,0.0,WeatherDisplay:10.37,2013-02-05 09:33:00,
2013-02-05 04:38:00,-7.6,-11.6,29.95,West,272,0.0,0.0,82,0.00,CLR,FEW,0.00,0.0,WeatherDisplay:10.37,2013-02-05 09:38:00,
2013-02-05 04:43:00,-7.7,-11.7,29.95,WSW,246,10.4,10.4,82,0.00,CLR,FEW,0.00,0.0,WeatherDisplay:10.37,2013-02-05 09:43:00,
2013-02-05 04:48:00,-7.8,-11.8,29.95,WSW,246,1.0,0.0,82,0.00,CLR,FEW,0.00,0.0,WeatherDisplay:10.37,2013-02-05 09:48:00,
2013-02-05 04:53:00,-7.9,-11.9,29.95,WSW,257,1.0,1.0,82,0.00,CLR,FEW,0.00,0.0,WeatherDisplay:10.37,2013-02-05 09:53:00,
2013-02-05 04:58:00,-7.9,-11.9,29.95,West,260,2.3,2.3,82,0.00,CLR,FEW,0.00,0.0,WeatherDisplay:10.37,2013-02-05 09:58:00,
2013-02-05 05:03:00,-7.9,-11.7,29.95,West,260,0.0,0.0,83,0.00,CLR,FEW,0.00,0.0,WeatherDisplay:10.37,2013-02-05 10:03:00,
2013-02-05 05:08:00,-8.0,-11.8,29.96,West,260,0.0,0.0,83,0.00,CLR,FEW,0.00,0.0,WeatherDisplay:10.37,2013-02-05 10:08:00,
2013-02-05 05:13:00,-8.1,-11.9,29.96,West,260,0.0,0.0,83,0.00,CLR,FEW,0.00,0.0,WeatherDisplay:10.37,2013-02-05 10:13:00,
2013-02-05 05:18:00,-8.1,-12.1,29.97,West,260,0.0,0.0,82,0.00,CLR,FEW,0.00,0.0,WeatherDisplay:10.37,2013-02-05 10:18:00,
2013-02-05 05:23:00,-8.4,-12.4,29.97,West,260,0.0,0.0,82,0.00,CLR,FEW,0.00,0.0,WeatherDisplay:10.37,2013-02-05 10:23:00,
2013-02-05 05:28:00,-8.5,-12.3,29.97,West,260,0.0,0.0,83,0.00,CLR,FEW,0.00,0.0,WeatherDisplay:10.37,2013-02-05 10:28:00,
2013-02-05 05:33:00,-8.6,-12.4,29.97,West,260,0.0,0.0,83,0.00,CLR,FEW,0.00,0.0,WeatherDisplay:10.37,2013-02-05 10:33:00,
2013-02-05 05:38:00,-8.7,-12.5,29.97,West,260,0.0,0.0,83,0.00,CLR,FEW,0.00,0.0,WeatherDisplay:10.37,2013-02-05 10:38:00,
2013-02-05 05:43:00,-8.9,-12.7,29.97,West,260,0.0,0.0,83,0.00,CLR,FEW,0.00,0.0,WeatherDisplay:10.37,2013-02-05 10:43:00,
2013-02-05 05:49:00,-8.9,-12.7,29.97,West,261,1.1,0.0,83,0.00,CLR,FEW,0.00,0.0,WeatherDisplay:10.37,2013-02-05 10:49:00,
2013-02-05 05:54:00,-9.0,-12.8,29.98,West,261,0.0,0.0,83,0.00,CLR,FEW,0.00,0.0,WeatherDisplay:10.37,2013-02-05 10:54:00,
2013-02-05 05:59:00,-9.0,-12.8,29.98,West,261,0.0,0.0,83,0.00,CLR,FEW,0.00,0.0,WeatherDisplay:10.37,2013-02-05 10:59:00,
2013-02-05 06:04:00,-9.1,-12.9,29.98,West,261,0.0,0.0,83,0.00,CLR,FEW,0.00,0.0,WeatherDisplay:10.37,2013-02-05 11:04:00,
2013-02-05 06:09:00,-9.1,-12.9,29.98,West,263,0.0,0.0,83,0.00,CLR,FEW,0.00,0.0,WeatherDisplay:10.37,2013-02-05 11:09:00,
2013-02-05 06:14:00,-9.1,-12.9,29.98,West,261,0.0,0.0,83,0.00,CLR,FEW,0.00,0.0,WeatherDisplay:10.37,2013-02-05 11:14:00,
2013-02-05 06:19:00,-9.2,-13.0,29.98,West,262,0.0,0.0,83,0.00,CLR,FEW,0.00,0.0,WeatherDisplay:10.37,2013-02-05 11:19:00,
2013-02-05 06:24:00,-9.2,-13.0,29.98,West,262,1.0,1.0,83,0.00,CLR,FEW,0.00,0.0,WeatherDisplay:10.37,2013-02-05 11:24:00,
2013-02-05 06:29:00,-9.2,-13.0,29.98,West,263,1.0,1.0,83,0.00,CLR,FEW,0.00,0.0,WeatherDisplay:10.37,2013-02-05 11:29:00,
2013-02-05 06:34:00,-9.2,-13.0,29.99,West,264,1.1,0.0,83,0.00,CLR,FEW,0.00,0.0,WeatherDisplay:10.37,2013-02-05 11:34:00,
2013-02-05 06:39:00,-9.3,-13.1,29.99,West,264,0.0,0.0,83,0.00,CLR,FEW,0.00,0.0,WeatherDisplay:10.37,2013-02-05 11:39:00,
2013-02-05 06:44:00,-9.4,-13.2,29.99,West,264,0.0,0.0,83,0.00,CLR,FEW,0.00,0.0,WeatherDisplay:10.37,2013-02-05 11:44:00,
2013-02-05 06:49:00,-9.5,-13.3,29.98,West,264,0.0,0.0,83,0.00,CLR,FEW,0.00,0.0,WeatherDisplay:10.37,2013-02-05 11:49:00,
2013-02-05 06:54:00,-9.6,-13.4,29.99,West,264,0.0,0.0,83,0.00,CLR,FEW,0.00,0.0,WeatherDisplay:10.37,2013-02-05 11:54:00,
2013-02-05 06:59:00,-9.7,-13.5,29.99,West,264,0.0,0.0,83,0.00,CLR,FEW,0.00,0.0,WeatherDisplay:10.37,2013-02-05 11:59:00,
2013-02-05 07:04:00,-9.6,-13.4,29.99,West,264,1.1,0.0,83,0.00,CLR,FEW,0.00,5.0,WeatherDisplay:10.37,2013-02-05 12:04:00,
2013-02-05 07:09:00,-9.6,-13.4,29.99,West,265,0.0,0.0,83,0.00,CLR,FEW,0.00,9.0,WeatherDisplay:10.37,2013-02-05 12:09:00,
2013-02-05 07:14:00,-9.6,-13.4,29.99,West,265,0.0,0.0,83,0.00,CLR,FEW,0.00,11.0,WeatherDisplay:10.37,2013-02-05 12:14:00,
2013-02-05 07:19:00,-9.7,-13.5,29.99,West,265,0.0,0.0,83,0.00,CLR,FEW,0.00,21.0,WeatherDisplay:10.37,2013-02-05 12:19:00,
2013-02-05 07:24:00,-9.6,-13.4,30.00,West,265,0.0,0.0,83,0.00,CLR,FEW,0.00,42.0,WeatherDisplay:10.37,2013-02-05 12:24:00,
2013-02-05 07:29:00,-9.2,-12.7,29.99,West,265,0.0,0.0,84,0.00,CLR,FEW,0.00,54.0,WeatherDisplay:10.37,2013-02-05 12:29:00,
2013-02-05 07:34:00,-8.5,-12.0,30.00,West,263,0.0,0.0,84,0.00,CLR,FEW,0.00,69.0,WeatherDisplay:10.37,2013-02-05 12:34:00,
2013-02-05 07:39:00,-7.8,-11.3,30.00,NNE,21,3.5,3.5,84,0.00,CLR,FEW,0.00,81.0,WeatherDisplay:10.37,2013-02-05 12:39:00,
2013-02-05 07:44:00,-7.3,-11.3,30.00,NNE,33,1.0,0.0,82,0.00,CLR,FEW,0.00,98.0,WeatherDisplay:10.37,2013-02-05 12:44:00,
2013-02-05 07:49:00,-6.9,-11.2,30.01,NE,34,1.1,1.1,81,0.00,CLR,FEW,0.00,111.0,WeatherDisplay:10.37,2013-02-05 12:49:00,
2013-02-05 07:54:00,-6.4,-11.0,30.01,WSW,248,0.0,0.0,80,0.00,CLR,FEW,0.00,125.0,WeatherDisplay:10.37,2013-02-05 12:54:00,
2013-02-05 07:59:00,-5.9,-10.5,30.01,North,360,2.3,2.3,80,0.00,CLR,FEW,0.00,148.0,WeatherDisplay:10.37,2013-02-05 12:59:00,
2013-02-05 08:04:00,-5.7,-10.8,30.01,NNW,336,0.0,0.0,78,0.00,CLR,FEW,0.00,162.0,WeatherDisplay:10.37,2013-02-05 13:04:00,
2013-02-05 08:09:00,-5.5,-10.9,30.02,WSW,240,3.5,3.5,77,0.00,CLR,FEW,0.00,176.0,WeatherDisplay:10.37,2013-02-05 13:09:00,
2013-02-05 08:14:00,-5.2,-10.6,30.02,SW,229,1.0,1.0,77,0.00,CLR,FEW,0.00,192.0,WeatherDisplay:10.37,2013-02-05 13:14:00,
2013-02-05 08:19:00,-5.1,-10.7,30.02,West,274,5.0,5.0,76,0.00,CLR,FEW,0.00,211.0,WeatherDisplay:10.37,2013-02-05 13:19:00,
2013-02-05 08:24:00,-5.1,-10.5,30.02,WNW,293,2.0,2.0,77,0.00,CLR,FEW,0.00,225.0,WeatherDisplay:10.37,2013-02-05 13:24:00,
2013-02-05 08:29:00,-4.6,-10.2,30.02,WNW,292,1.1,0.0,76,0.00,CLR,FEW,0.00,239.0,WeatherDisplay:10.37,2013-02-05 13:29:00,
2013-02-05 08:34:00,-4.7,-10.6,30.03,SSW,208,3.5,3.5,75,0.00,CLR,FEW,0.00,253.0,WeatherDisplay:10.37,2013-02-05 13:34:00,
2013-02-05 08:39:00,-5.0,-10.9,30.03,SSW,211,3.5,3.5,75,0.00,CLR,FEW,0.00,258.0,WeatherDisplay:10.37,2013-02-05 13:39:00,
2013-02-05 08:44:00,-4.7,-10.6,30.03,SW,217,2.3,2.3,75,0.00,CLR,FEW,0.00,262.0,WeatherDisplay:10.37,2013-02-05 13:44:00,
2013-02-05 08:49:00,-4.3,-10.5,30.03,ENE,63,2.0,2.0,74,0.00,CLR,FEW,0.00,294.0,WeatherDisplay:10.37,2013-02-05 13:49:00,
2013-02-05 08:54:00,-3.7,-10.2,30.03,SSW,200,3.5,3.5,73,0.00,CLR,FEW,0.00,308.0,WeatherDisplay:10.37,2013-02-05 13:54:00,
2013-02-05 08:59:00,-2.9,-9.7,30.03,SSW,200,0.0,0.0,72,0.00,CLR,FEW,0.00,320.0,WeatherDisplay:10.37,2013-02-05 13:59:00,
2013-02-05 09:04:00,-2.5,-9.3,30.04,SW,215,3.5,3.5,72,0.00,CLR,FEW,0.00,336.0,WeatherDisplay:10.37,2013-02-05 14:04:00,
2013-02-05 09:09:00,-2.9,-10.3,30.04,NW,326,2.3,0.0,70,0.00,CLR,FEW,0.00,350.0,WeatherDisplay:10.37,2013-02-05 14:09:00,
2013-02-05 09:14:00,-2.5,-9.6,30.05,SW,219,1.1,1.1,71,0.00,CLR,FEW,0.00,362.0,WeatherDisplay:10.37,2013-02-05 14:14:00,
2013-02-05 09:19:00,-2.0,-9.7,30.05,SSW,204,4.0,4.0,69,0.00,CLR,FEW,0.00,374.0,WeatherDisplay:10.37,2013-02-05 14:19:00,
2013-02-05 09:24:00,-2.3,-10.0,30.05,NE,38,7.0,7.0,69,0.00,CLR,FEW,0.00,390.0,WeatherDisplay:10.37,2013-02-05 14:24:00,
2013-02-05 09:29:00,-1.7,-9.1,30.05,NW,319,4.0,4.0,70,0.00,CLR,FEW,0.00,404.0,WeatherDisplay:10.37,2013-02-05 14:29:00,
2013-02-05 09:34:00,-1.8,-9.8,30.05,WNW,292,6.0,6.0,68,0.00,CLR,FEW,0.00,418.0,WeatherDisplay:10.37,2013-02-05 14:34:00,
2013-02-05 09:39:00,-1.5,-10.1,30.05,ESE,104,2.3,2.3,66,0.00,CLR,FEW,0.00,431.0,WeatherDisplay:10.37,2013-02-05 14:39:00,
2013-02-05 09:44:00,-1.4,-10.3,30.05,SSE,150,9.2,9.2,65,0.00,CLR,FEW,0.00,429.0,WeatherDisplay:10.37,2013-02-05 14:44:00,
2013-02-05 09:49:00,-1.3,-9.9,30.05,SSW,209,3.5,3.5,66,0.00,CLR,FEW,0.00,424.0,WeatherDisplay:10.37,2013-02-05 14:49:00,
2013-02-05 09:54:00,-1.2,-10.1,30.05,SW,227,6.0,6.0,65,0.00,CLR,FEW,0.00,454.0,WeatherDisplay:10.37,2013-02-05 14:54:00,
2013-02-05 09:59:00,-0.9,-10.2,30.05,ENE,65,5.8,5.8,64,0.00,CLR,FEW,0.00,464.0,WeatherDisplay:10.37,2013-02-05 14:59:00,
2013-02-05 10:04:00,-0.7,-10.3,30.05,SSW,204,4.6,4.6,63,0.00,CLR,FEW,0.00,490.0,WeatherDisplay:10.37,2013-02-05 15:04:00,
2013-02-05 10:09:00,-0.4,-9.7,30.05,SSW,204,4.6,4.6,64,0.00,CLR,FEW,0.00,485.0,WeatherDisplay:10.37,2013-02-05 15:09:00,
2013-02-05 10:14:00,0.4,-9.2,30.05,SW,221,5.0,5.0,63,0.00,CLR,FEW,0.00,462.0,WeatherDisplay:10.37,2013-02-05 15:14:00,
2013-02-05 10:19:00,0.8,-8.9,30.05,SSW,209,3.5,3.5,63,0.00,CLR,FEW,0.00,464.0,WeatherDisplay:10.37,2013-02-05 15:19:00,
2013-02-05 10:24:00,0.9,-9.1,30.05,SW,224,4.0,4.0,62,0.00,CLR,FEW,0.00,527.0,WeatherDisplay:10.37,2013-02-05 15:24:00,
2013-02-05 10:29:00,1.4,-8.6,30.05,South,190,3.5,3.5,62,0.00,CLR,FEW,0.00,536.0,WeatherDisplay:10.37,2013-02-05 15:29:00,
2013-02-05 10:34:00,1.8,-8.9,30.05,SSW,200,9.2,9.2,60,0.00,CLR,FEW,0.00,545.0,WeatherDisplay:10.37,2013-02-05 15:34:00,
2013-02-05 10:39:00,1.6,-9.4,30.06,West,279,9.0,9.0,59,0.00,CLR,FEW,0.00,552.0,WeatherDisplay:10.37,2013-02-05 15:39:00,
2013-02-05 10:44:00,2.0,-8.7,30.06,SSE,153,2.0,2.0,60,0.00,CLR,FEW,0.00,563.0,WeatherDisplay:10.37,2013-02-05 15:44:00,
2013-02-05 10:49:00,3.1,-8.0,30.06,South,177,4.0,4.0,59,0.00,CLR,FEW,0.00,570.0,WeatherDisplay:10.37,2013-02-05 15:49:00,
2013-02-05 10:54:00,3.2,-8.6,30.06,SW,236,6.0,6.0,57,0.00,CLR,FEW,0.00,577.0,WeatherDisplay:10.37,2013-02-05 15:54:00,
2013-02-05 10:59:00,3.9,-8.3,30.06,SSE,153,5.0,5.0,56,0.00,CLR,FEW,0.00,582.0,WeatherDisplay:10.37,2013-02-05 15:59:00,
2013-02-05 11:04:00,3.3,-9.6,30.06,West,273,10.4,10.4,54,0.00,CLR,FEW,0.00,585.0,WeatherDisplay:10.37,2013-02-05 16:04:00,
2013-02-05 11:09:00,2.9,-9.6,30.06,SSW,196,6.0,6.0,55,0.00,CLR,FEW,0.00,589.0,WeatherDisplay:10.37,2013-02-05 16:09:00,
2013-02-05 11:14:00,3.3,-9.3,30.06,SSE,160,4.0,4.0,55,0.00,CLR,FEW,0.00,596.0,WeatherDisplay:10.37,2013-02-05 16:14:00,
2013-02-05 11:19:00,4.0,-9.0,30.06,ENE,64,4.6,4.6,54,0.00,CLR,FEW,0.00,596.0,WeatherDisplay:10.37,2013-02-05 16:19:00,
2013-02-05 11:24:00,4.7,-8.7,30.06,South,190,5.0,5.0,53,0.00,CLR,FEW,0.00,599.0,WeatherDisplay:10.37,2013-02-05 16:24:00,
2013-02-05 11:29:00,4.6,-8.4,30.06,South,188,7.0,7.0,54,0.00,CLR,FEW,0.00,603.0,WeatherDisplay:10.37,2013-02-05 16:29:00,
2013-02-05 11:34:00,4.7,-8.7,30.06,South,177,3.5,3.5,53,0.00,CLR,FEW,0.00,606.0,WeatherDisplay:10.37,2013-02-05 16:34:00,
2013-02-05 11:39:00,5.6,-7.5,30.05,South,170,3.5,3.5,54,0.00,CLR,FEW,0.00,606.0,WeatherDisplay:10.37,2013-02-05 16:39:00,
2013-02-05 11:44:00,6.4,-7.1,30.05,NNE,21,4.0,4.0,53,0.00,CLR,FEW,0.00,608.0,WeatherDisplay:10.37,2013-02-05 16:44:00,
2013-02-05 11:49:00,5.7,-9.0,30.05,South,185,3.5,3.5,50,0.00,CLR,FEW,0.00,613.0,WeatherDisplay:10.37,2013-02-05 16:49:00,
2013-02-05 11:54:00,6.7,-6.1,30.05,NNE,30,5.8,5.8,55,0.00,CLR,FEW,0.00,612.0,WeatherDisplay:10.37,2013-02-05 16:54:00,
2013-02-05 11:59:00,6.8,-7.1,30.05,SSE,153,3.5,3.5,52,0.00,CLR,FEW,0.00,615.0,WeatherDisplay:10.37,2013-02-05 16:59:00,
2013-02-05 12:05:00,7.0,-6.6,30.05,NNE,17,1.1,1.1,53,0.00,CLR,FEW,0.00,615.0,WeatherDisplay:10.37,2013-02-05 17:05:00,
2013-02-05 12:10:00,6.1,-9.0,30.05,ESE,102,3.5,3.5,49,0.00,CLR,FEW,0.00,613.0,WeatherDisplay:10.37,2013-02-05 17:10:00,
2013-02-05 12:15:00,6.5,-7.0,30.04,NNE,29,3.5,3.5,53,0.00,CLR,FEW,0.00,610.0,WeatherDisplay:10.37,2013-02-05 17:15:00,
2013-02-05 12:20:00,7.5,-7.3,30.04,NNW,331,1.1,1.1,50,0.00,CLR,FEW,0.00,612.0,WeatherDisplay:10.37,2013-02-05 17:20:00,
2013-02-05 12:25:00,8.1,-7.6,30.03,South,180,3.0,3.0,48,0.00,CLR,FEW,0.00,613.0,WeatherDisplay:10.37,2013-02-05 17:25:00,
2013-02-05 12:31:00,8.8,-3.4,30.04,WNW,290,2.3,2.3,57,0.00,CLR,FEW,0.00,610.0,WeatherDisplay:10.37,2013-02-05 17:31:00,
2013-02-05 12:36:00,8.3,-7.4,30.04,WNW,302,1.0,5.0,48,0.00,CLR,FEW,0.00,608.0,WeatherDisplay:10.37,2013-02-05 17:36:00,
2013-02-05 12:41:00,7.5,-6.9,30.04,SW,227,2.3,2.3,51,0.00,CLR,FEW,0.00,606.0,WeatherDisplay:10.37,2013-02-05 17:41:00,
2013-02-05 12:46:00,8.5,-5.2,30.04,NE,50,3.5,3.5,53,0.00,CLR,FEW,0.00,603.0,WeatherDisplay:10.37,2013-02-05 17:46:00,
2013-02-05 12:51:00,8.5,-5.6,30.03,NW,308,3.0,7.0,52,0.00,CLR,FEW,0.00,594.0,WeatherDisplay:10.37,2013-02-05 17:51:00,
2013-02-05 12:56:00,8.4,-7.3,30.03,SSW,207,3.5,3.5,48,0.00,CLR,FEW,0.00,592.0,WeatherDisplay:10.37,2013-02-05 17:56:00,
2013-02-05 13:01:00,7.8,-8.3,30.04,SW,217,8.0,8.0,47,0.00,CLR,FEW,0.00,587.0,WeatherDisplay:10.37,2013-02-05 18:01:00,
2013-02-05 13:06:00,8.2,-6.6,30.03,SW,227,4.0,4.0,50,0.00,CLR,FEW,0.00,582.0,WeatherDisplay:10.37,2013-02-05 18:06:00,
2013-02-05 13:11:00,7.8,-8.3,30.04,South,183,4.0,4.0,47,0.00,CLR,FEW,0.00,577.0,WeatherDisplay:10.37,2013-02-05 18:11:00,
2013-02-05 13:16:00,8.6,-6.7,30.04,South,183,0.0,0.0,49,0.00,CLR,FEW,0.00,571.0,WeatherDisplay:10.37,2013-02-05 18:16:00,
2013-02-05 13:21:00,8.6,-8.0,30.04,SSW,194,4.0,4.0,46,0.00,CLR,FEW,0.00,564.0,WeatherDisplay:10.37,2013-02-05 18:21:00,
2013-02-05 13:26:00,8.5,-6.4,30.04,South,172,1.1,1.1,50,0.00,CLR,FEW,0.00,557.0,WeatherDisplay:10.37,2013-02-05 18:26:00,
2013-02-05 13:31:00,9.0,-7.6,30.04,South,182,6.0,6.0,46,0.00,CLR,FEW,0.00,547.0,WeatherDisplay:10.37,2013-02-05 18:31:00,
2013-02-05 13:36:00,8.9,-6.4,30.04,NE,38,3.5,3.5,49,0.00,CLR,FEW,0.00,501.0,WeatherDisplay:10.37,2013-02-05 18:36:00,
2013-02-05 13:41:00,9.0,-7.6,30.04,SSW,194,3.5,3.5,46,0.00,CLR,FEW,0.00,529.0,WeatherDisplay:10.37,2013-02-05 18:41:00,
2013-02-05 13:46:00,8.9,-7.7,30.03,South,186,3.5,3.5,46,0.00,CLR,FEW,0.00,524.0,WeatherDisplay:10.37,2013-02-05 18:46:00,
2013-02-05 13:51:00,9.1,-7.1,30.03,SSW,207,5.0,5.0,47,0.00,CLR,FEW,0.00,513.0,WeatherDisplay:10.37,2013-02-05 18:51:00,
2013-02-05 13:56:00,9.5,-7.2,30.03,West,277,5.0,5.0,46,0.00,CLR,FEW,0.00,504.0,WeatherDisplay:10.37,2013-02-05 18:56:00,
2013-02-05 14:01:00,9.8,-6.9,30.03,SW,225,7.0,7.0,46,0.00,CLR,FEW,0.00,496.0,WeatherDisplay:10.37,2013-02-05 19:01:00,
2013-02-05 14:06:00,9.2,-8.3,30.03,SSW,193,6.9,6.9,44,0.00,CLR,FEW,0.00,483.0,WeatherDisplay:10.37,2013-02-05 19:06:00,
2013-02-05 14:11:00,9.3,-6.9,30.03,SW,226,4.0,4.0,47,0.00,CLR,FEW,0.00,471.0,WeatherDisplay:10.37,2013-02-05 19:11:00,
2013-02-05 14:16:00,9.4,-7.7,30.03,SW,222,5.0,5.0,45,0.00,CLR,FEW,0.00,462.0,WeatherDisplay:10.37,2013-02-05 19:16:00,
2013-02-05 14:21:00,9.6,-7.5,30.03,SSW,199,5.0,5.0,45,0.00,CLR,FEW,0.00,452.0,WeatherDisplay:10.37,2013-02-05 19:21:00,
2013-02-05 14:26:00,9.9,-6.8,30.03,South,186,1.1,1.1,46,0.00,CLR,FEW,0.00,438.0,WeatherDisplay:10.37,2013-02-05 19:26:00,
2013-02-05 14:31:00,10.2,-7.9,30.02,WSW,255,5.0,5.0,43,0.00,CLR,FEW,0.00,427.0,WeatherDisplay:10.37,2013-02-05 19:31:00,
2013-02-05 14:36:00,10.3,-7.8,30.02,SW,223,8.1,8.1,43,0.00,CLR,FEW,0.00,413.0,WeatherDisplay:10.37,2013-02-05 19:36:00,
2013-02-05 14:41:00,10.2,-7.9,30.03,South,189,5.0,5.0,43,0.00,CLR,FEW,0.00,397.0,WeatherDisplay:10.37,2013-02-05 19:41:00,
2013-02-05 14:46:00,10.1,-7.5,30.03,South,178,1.0,0.0,44,0.00,CLR,FEW,0.00,390.0,WeatherDisplay:10.37,2013-02-05 19:46:00,
2013-02-05 14:51:00,10.6,-7.1,30.03,SW,220,3.5,3.5,44,0.00,CLR,FEW,0.00,373.0,WeatherDisplay:10.37,2013-02-05 19:51:00,
2013-02-05 14:56:00,10.7,-6.5,30.03,West,277,3.5,3.5,45,0.00,CLR,FEW,0.00,360.0,WeatherDisplay:10.37,2013-02-05 19:56:00,
2013-02-05 15:01:00,11.1,-6.1,30.03,SW,229,1.1,1.1,45,0.00,CLR,FEW,0.00,346.0,WeatherDisplay:10.37,2013-02-05 20:01:00,
2013-02-05 15:06:00,10.9,-6.8,30.03,SSW,194,4.6,4.6,44,0.00,CLR,FEW,0.00,308.0,WeatherDisplay:10.37,2013-02-05 20:06:00,
2013-02-05 15:11:00,10.4,-8.2,30.02,SSW,208,3.5,3.5,42,0.00,CLR,FEW,0.00,220.0,WeatherDisplay:10.37,2013-02-05 20:11:00,
2013-02-05 15:16:00,10.1,-7.5,30.03,SSW,202,2.3,2.3,44,0.00,CLR,FEW,0.00,230.0,WeatherDisplay:10.37,2013-02-05 20:16:00,
2013-02-05 15:22:00,10.0,-7.6,30.02,SSW,211,6.0,6.0,44,0.00,CLR,FEW,0.00,121.0,WeatherDisplay:10.37,2013-02-05 20:22:00,
2013-02-05 15:27:00,9.9,-7.7,30.03,SSW,204,3.0,3.0,44,0.00,CLR,FEW,0.00,139.0,WeatherDisplay:10.37,2013-02-05 20:27:00,
2013-02-05 15:32:00,9.7,-8.4,30.03,SSW,204,3.5,3.5,43,0.00,CLR,FEW,0.00,102.0,WeatherDisplay:10.37,2013-02-05 20:32:00,
2013-02-05 15:37:00,9.7,-7.9,30.02,SSW,205,3.0,3.0,44,0.00,CLR,FEW,0.00,44.0,WeatherDisplay:10.37,2013-02-05 20:37:00,
2013-02-05 15:42:00,9.7,-7.9,30.02,South,188,4.0,4.0,44,0.00,CLR,FEW,0.00,35.0,WeatherDisplay:10.37,2013-02-05 20:42:00,
2013-02-05 15:47:00,9.6,-8.4,30.02,South,188,1.1,0.0,43,0.00,CLR,FEW,0.00,39.0,WeatherDisplay:10.37,2013-02-05 20:47:00,
2013-02-05 15:52:00,9.5,-7.6,30.02,South,190,1.1,0.0,45,0.00,CLR,FEW,0.00,40.0,WeatherDisplay:10.37,2013-02-05 20:52:00,
2013-02-05 15:57:00,9.4,-6.8,30.02,SSW,196,2.3,0.0,47,0.00,CLR,FEW,0.00,37.0,WeatherDisplay:10.37,2013-02-05 20:57:00,
2013-02-05 16:02:00,9.2,-6.6,30.02,SSW,197,1.1,0.0,48,0.00,CLR,FEW,0.00,39.0,WeatherDisplay:10.37,2013-02-05 21:02:00,
2013-02-05 16:07:00,9.1,-6.2,30.02,SSW,197,0.0,0.0,49,0.00,CLR,FEW,0.00,37.0,WeatherDisplay:10.37,2013-02-05 21:07:00,
2013-02-05 16:12:00,9.0,-5.5,30.02,SSW,197,0.0,0.0,51,0.00,CLR,FEW,0.00,37.0,WeatherDisplay:10.37,2013-02-05 21:12:00,
2013-02-05 16:17:00,8.9,-4.8,30.02,SSW,197,0.0,0.0,53,0.00,CLR,FEW,0.00,37.0,WeatherDisplay:10.37,2013-02-05 21:17:00,
2013-02-05 16:23:00,8.8,-6.1,30.02,SSW,197,0.0,0.0,50,0.00,CLR,FEW,0.00,33.0,WeatherDisplay:10.37,2013-02-05 21:23:00,
2013-02-05 16:28:00,8.6,-5.5,30.02,SSW,197,0.0,0.0,52,0.00,CLR,FEW,0.00,28.0,WeatherDisplay:10.37,2013-02-05 21:28:00,
2013-02-05 16:33:00,8.5,-6.8,30.02,SSW,197,1.1,0.0,49,0.00,CLR,FEW,0.00,23.0,WeatherDisplay:10.37,2013-02-05 21:33:00,
2013-02-05 16:38:00,8.3,-4.6,30.02,SSW,197,0.0,0.0,55,0.00,CLR,FEW,0.00,18.0,WeatherDisplay:10.37,2013-02-05 21:38:00,
2013-02-05 16:43:00,8.1,-4.4,30.02,SSW,197,0.0,0.0,56,0.00,CLR,FEW,0.00,14.0,WeatherDisplay:10.37,2013-02-05 21:43:00,
2013-02-05 16:48:00,7.9,-2.8,30.02,SSW,197,0.0,0.0,61,0.00,CLR,FEW,0.00,12.0,WeatherDisplay:10.37,2013-02-05 21:48:00,
2013-02-05 16:53:00,7.6,-4.1,30.02,SSW,197,0.0,0.0,58,0.00,CLR,FEW,0.00,7.0,WeatherDisplay:10.37,2013-02-05 21:53:00,
2013-02-05 16:58:00,7.2,-3.1,30.02,SSW,197,0.0,0.0,62,0.00,CLR,FEW,0.00,0.0,WeatherDisplay:10.37,2013-02-05 21:58:00,
2013-02-05 17:03:00,6.9,-3.7,30.02,SSW,197,0.0,0.0,61,0.00,CLR,FEW,0.00,0.0,WeatherDisplay:10.37,2013-02-05 22:03:00,
2013-02-05 17:08:00,6.6,-5.1,30.02,SSW,197,0.0,0.0,58,0.00,CLR,FEW,0.00,0.0,WeatherDisplay:10.37,2013-02-05 22:08:00,
2013-02-05 17:13:00,6.2,-4.1,30.03,SSW,197,0.0,0.0,62,0.00,CLR,FEW,0.00,0.0,WeatherDisplay:10.37,2013-02-05 22:13:00,
2013-02-05 17:18:00,6.0,-3.3,30.03,SSW,197,0.0,0.0,65,0.00,CLR,FEW,0.00,0.0,WeatherDisplay:10.37,2013-02-05 22:18:00,
2013-02-05 17:23:00,5.9,-3.7,30.03,SSW,197,0.0,0.0,64,0.00,CLR,FEW,0.00,0.0,WeatherDisplay:10.37,2013-02-05 22:23:00,
2013-02-05 17:28:00,5.9,-5.4,30.03,SSW,197,0.0,0.0,59,0.00,CLR,FEW,0.00,0.0,WeatherDisplay:10.37,2013-02-05 22:28:00,
2013-02-05 17:33:00,6.1,-4.8,30.03,SSW,197,0.0,0.0,60,0.00,CLR,FEW,0.00,0.0,WeatherDisplay:10.37,2013-02-05 22:33:00,
2013-02-05 17:38:00,6.1,-5.9,30.03,SSE,165,2.3,2.3,57,0.00,CLR,FEW,0.00,0.0,WeatherDisplay:10.37,2013-02-05 22:38:00,
2013-02-05 17:43:00,6.3,-4.0,30.02,SSE,165,0.0,0.0,62,0.00,CLR,FEW,0.00,0.0,WeatherDisplay:10.37,2013-02-05 22:43:00,
2013-02-05 17:48:00,6.3,-4.0,30.03,SSE,165,1.1,0.0,62,0.00,CLR,FEW,0.00,0.0,WeatherDisplay:10.37,2013-02-05 22:48:00,
2013-02-05 17:53:00,6.3,-4.6,30.03,SSE,165,0.0,0.0,60,0.00,CLR,FEW,0.00,0.0,WeatherDisplay:10.37,2013-02-05 22:53:00,
2013-02-05 17:58:00,6.3,-5.7,30.03,East,92,3.5,3.5,57,0.00,CLR,FEW,0.00,0.0,WeatherDisplay:10.37,2013-02-05 22:58:00,
2013-02-05 18:03:00,6.4,-3.5,30.04,East,92,0.0,0.0,63,0.00,CLR,FEW,0.00,0.0,WeatherDisplay:10.37,2013-02-05 23:03:00,
2013-02-05 18:08:00,6.4,-3.9,30.04,East,92,0.0,0.0,62,0.00,CLR,FEW,0.00,0.0,WeatherDisplay:10.37,2013-02-05 23:08:00,
2013-02-05 18:13:00,6.3,-4.6,30.03,East,92,1.0,0.0,60,0.00,CLR,FEW,0.00,0.0,WeatherDisplay:10.37,2013-02-05 23:13:00,
2013-02-05 18:18:00,6.1,-4.5,30.03,East,92,0.0,0.0,61,0.00,CLR,FEW,0.00,0.0,WeatherDisplay:10.37,2013-02-05 23:18:00,
2013-02-05 18:23:00,5.9,-5.4,30.03,East,92,1.1,0.0,59,0.00,CLR,FEW,0.00,0.0,WeatherDisplay:10.37,2013-02-05 23:23:00,
2013-02-05 18:28:00,5.9,-5.0,30.03,East,92,0.0,0.0,60,0.00,CLR,FEW,0.00,0.0,WeatherDisplay:10.37,2013-02-05 23:28:00,
2013-02-05 18:33:00,5.9,-4.7,30.03,East,92,0.0,0.0,61,0.00,CLR,FEW,0.00,0.0,WeatherDisplay:10.37,2013-02-05 23:33:00,
2013-02-05 18:38:00,5.7,-4.5,30.03,East,92,0.0,0.0,62,0.00,CLR,FEW,0.00,0.0,WeatherDisplay:10.37,2013-02-05 23:38:00,
2013-02-05 18:43:00,5.4,-4.8,30.02,East,92,1.1,0.0,62,0.00,CLR,FEW,0.00,0.0,WeatherDisplay:10.37,2013-02-05 23:43:00,
2013-02-05 18:48:00,5.1,-5.1,30.02,East,92,0.0,0.0,62,0.00,CLR,FEW,0.00,0.0,WeatherDisplay:10.37,2013-02-05 23:48:00,
2013-02-05 18:53:00,4.9,-4.6,30.02,East,92,0.0,0.0,64,0.00,CLR,FEW,0.00,0.0,WeatherDisplay:10.37,2013-02-05 23:53:00,
2013-02-05 18:58:00,4.8,-4.7,30.02,East,92,0.0,0.0,64,0.00,CLR,FEW,0.00,0.0,WeatherDisplay:10.37,2013-02-05 23:58:00,
2013-02-05 19:03:00,4.8,-3.8,30.02,East,92,0.0,0.0,67,0.00,SCT,FEW,0.00,0.0,WeatherDisplay:10.37,2013-02-06 00:03:00,
2013-02-05 19:08:00,4.8,-4.7,30.02,East,92,1.0,0.0,64,0.00,SCT,FEW,0.00,0.0,WeatherDisplay:10.37,2013-02-06 00:08:00,
2013-02-05 19:13:00,5.0,-5.5,30.02,East,92,0.0,0.0,61,0.00,SCT,FEW,0.00,0.0,WeatherDisplay:10.37,2013-02-06 00:13:00,
2013-02-05 19:18:00,5.2,-4.7,30.02,East,92,0.0,0.0,63,0.00,SCT,FEW,0.00,0.0,WeatherDisplay:10.37,2013-02-06 00:18:00,
2013-02-05 19:24:00,5.4,-3.8,30.02,East,92,0.0,0.0,65,0.00,SCT,FEW,0.00,0.0,WeatherDisplay:10.37,2013-02-06 00:24:00,
2013-02-05 19:29:00,5.4,-3.5,30.02,East,92,0.0,0.0,66,0.00,SCT,FEW,0.00,0.0,WeatherDisplay:10.37,2013-02-06 00:29:00,
2013-02-05 19:34:00,5.3,-4.9,30.01,East,92,0.0,0.0,62,0.00,SCT,FEW,0.00,0.0,WeatherDisplay:10.37,2013-02-06 00:34:00,
2013-02-05 19:39:00,5.2,-4.3,30.01,East,92,0.0,0.0,64,0.00,SCT,FEW,0.00,0.0,WeatherDisplay:10.37,2013-02-06 00:39:00,
2013-02-05 19:44:00,5.2,-5.0,30.01,East,92,0.0,0.0,62,0.00,SCT,FEW,0.00,0.0,WeatherDisplay:10.37,2013-02-06 00:44:00,
2013-02-05 19:49:00,5.1,-4.8,30.00,East,92,0.0,0.0,63,0.00,SCT,FEW,0.00,0.0,WeatherDisplay:10.37,2013-02-06 00:49:00,
2013-02-05 19:54:00,5.1,-4.8,30.00,East,92,0.0,0.0,63,0.00,SCT,FEW,0.00,0.0,WeatherDisplay:10.37,2013-02-06 00:54:00,
2013-02-05 19:59:00,5.2,-4.0,30.00,East,92,0.0,0.0,65,0.00,SCT,FEW,0.00,0.0,WeatherDisplay:10.37,2013-02-06 00:59:00,
2013-02-05 20:04:00,5.1,-4.1,30.01,East,92,0.0,0.0,65,0.00,OVC,FEW,0.00,0.0,WeatherDisplay:10.37,2013-02-06 01:04:00,
2013-02-05 20:09:00,5.2,-3.4,30.01,East,92,0.0,0.0,67,0.00,OVC,FEW,0.00,0.0,WeatherDisplay:10.37,2013-02-06 01:09:00,
2013-02-05 20:14:00,5.3,-3.3,30.01,East,92,0.0,0.0,67,0.00,OVC,FEW,0.00,0.0,WeatherDisplay:10.37,2013-02-06 01:14:00,
2013-02-05 20:19:00,5.4,-3.8,30.01,East,92,0.0,0.0,65,0.00,OVC,FEW,0.00,0.0,WeatherDisplay:10.37,2013-02-06 01:19:00,
2013-02-05 20:24:00,5.6,-5.0,30.01,East,92,1.1,1.1,61,0.00,OVC,FEW,0.00,0.0,WeatherDisplay:10.37,2013-02-06 01:24:00,
2013-02-05 20:29:00,5.8,-4.8,30.01,East,92,0.0,0.0,61,0.00,OVC,FEW,0.00,0.0,WeatherDisplay:10.37,2013-02-06 01:29:00,
2013-02-05 20:34:00,6.0,-4.6,30.01,East,92,0.0,0.0,61,0.00,OVC,FEW,0.00,0.0,WeatherDisplay:10.37,2013-02-06 01:34:00,
2013-02-05 20:39:00,6.1,-3.8,30.01,East,92,0.0,0.0,63,0.00,OVC,FEW,0.00,0.0,WeatherDisplay:10.37,2013-02-06 01:39:00,
2013-02-05 20:44:00,6.1,-3.8,30.01,East,92,0.0,0.0,63,0.00,OVC,FEW,0.00,0.0,WeatherDisplay:10.37,2013-02-06 01:44:00,
2013-02-05 20:49:00,6.1,-4.5,30.01,East,92,0.0,0.0,61,0.00,OVC,FEW,0.00,0.0,WeatherDisplay:10.37,2013-02-06 01:49:00,
2013-02-05 20:54:00,6.0,-3.6,30.01,East,92,0.0,0.0,64,0.00,OVC,FEW,0.00,0.0,WeatherDisplay:10.37,2013-02-06 01:54:00,
2013-02-05 20:59:00,5.8,-5.5,30.01,East,92,0.0,0.0,59,0.00,OVC,FEW,0.00,0.0,WeatherDisplay:10.37,2013-02-06 01:59:00,
2013-02-05 21:04:00,5.7,-4.2,30.01,East,92,0.0,0.0,63,0.00,BKN,FEW,0.00,0.0,WeatherDisplay:10.37,2013-02-06 02:04:00,
2013-02-05 21:09:00,5.6,-3.6,30.01,East,92,0.0,0.0,65,0.00,BKN,FEW,0.00,0.0,WeatherDisplay:10.37,2013-02-06 02:09:00,
2013-02-05 21:14:00,5.4,-4.2,30.01,East,92,0.0,0.0,64,0.00,BKN,FEW,0.00,0.0,WeatherDisplay:10.37,2013-02-06 02:14:00,
2013-02-05 21:19:00,5.3,-4.2,30.01,East,92,0.0,0.0,64,0.00,BKN,FEW,0.00,0.0,WeatherDisplay:10.37,2013-02-06 02:19:00,
2013-02-05 21:24:00,5.3,-3.9,30.01,East,92,0.0,0.0,65,0.00,BKN,FEW,0.00,0.0,WeatherDisplay:10.37,2013-02-06 02:24:00,
2013-02-05 21:29:00,5.3,-3.6,30.01,East,92,0.0,0.0,66,0.00,BKN,FEW,0.00,0.0,WeatherDisplay:10.37,2013-02-06 02:29:00,
2013-02-05 21:34:00,5.3,-3.6,30.01,East,92,0.0,0.0,66,0.00,BKN,FEW,0.00,0.0,WeatherDisplay:10.37,2013-02-06 02:34:00,
2013-02-05 21:39:00,5.3,-3.9,30.02,East,92,0.0,0.0,65,0.00,BKN,FEW,0.00,0.0,WeatherDisplay:10.37,2013-02-06 02:39:00,
2013-02-05 21:44:00,5.1,-3.5,30.02,East,92,0.0,0.0,67,0.00,BKN,FEW,0.00,0.0,WeatherDisplay:10.37,2013-02-06 02:44:00,
2013-02-05 21:49:00,5.0,-3.0,30.02,East,92,0.0,0.0,69,0.00,BKN,FEW,0.00,0.0,WeatherDisplay:10.37,2013-02-06 02:49:00,
2013-02-05 21:54:00,4.8,-2.5,30.02,East,92,0.0,0.0,71,0.00,BKN,FEW,0.00,0.0,WeatherDisplay:10.37,2013-02-06 02:54:00,
2013-02-05 21:59:00,4.8,-3.8,30.02,East,92,0.0,0.0,67,0.00,BKN,FEW,0.00,0.0,WeatherDisplay:10.37,2013-02-06 02:59:00,
2013-02-05 22:04:00,5.2,-4.0,30.02,East,92,0.0,0.0,65,0.00,OVC,FEW,0.00,0.0,WeatherDisplay:10.37,2013-02-06 03:04:00,
2013-02-05 22:09:00,5.5,-3.7,30.02,East,92,0.0,0.0,65,0.00,OVC,FEW,0.00,0.0,WeatherDisplay:10.37,2013-02-06 03:09:00,
2013-02-05 22:14:00,5.8,-4.4,30.01,East,92,0.0,0.0,62,0.00,OVC,FEW,0.00,0.0,WeatherDisplay:10.37,2013-02-06 03:14:00,
2013-02-05 22:19:00,6.1,-4.1,30.01,East,92,0.0,0.0,62,0.00,OVC,FEW,0.00,0.0,WeatherDisplay:10.37,2013-02-06 03:19:00,
2013-02-05 22:24:00,6.3,-4.6,30.01,East,92,1.0,0.0,60,0.00,OVC,FEW,0.00,0.0,WeatherDisplay:10.37,2013-02-06 03:24:00,
2013-02-05 22:29:00,6.6,-4.7,30.01,East,92,0.0,0.0,59,0.00,OVC,FEW,0.00,0.0,WeatherDisplay:10.37,2013-02-06 03:29:00,
2013-02-05 22:34:00,6.7,-3.9,30.01,East,92,0.0,0.0,61,0.00,OVC,FEW,0.00,0.0,WeatherDisplay:10.37,2013-02-06 03:34:00,
2013-02-05 22:40:00,6.7,-5.0,30.01,East,92,0.0,0.0,58,0.00,OVC,FEW,0.00,0.0,WeatherDisplay:10.37,2013-02-06 03:40:00,
2013-02-05 22:45:00,6.8,-4.5,30.01,East,92,0.0,0.0,59,0.00,OVC,FEW,0.00,0.0,WeatherDisplay:10.37,2013-02-06 03:45:00,
2013-02-05 22:50:00,6.7,-4.6,30.00,East,92,0.0,0.0,59,0.00,OVC,FEW,0.00,0.0,WeatherDisplay:10.37,2013-02-06 03:50:00,
2013-02-05 22:55:00,6.7,-4.3,30.00,East,92,0.0,0.0,60,0.00,OVC,FEW,0.00,0.0,WeatherDisplay:10.37,2013-02-06 03:55:00,
2013-02-05 23:00:00,6.5,-4.8,30.00,East,92,0.0,0.0,59,0.00,OVC,FEW,0.00,0.0,WeatherDisplay:10.37,2013-02-06 04:00:00,
2013-02-05 23:05:00,6.4,-5.3,30.00,East,92,0.0,0.0,58,0.00,OVC,FEW,0.00,0.0,WeatherDisplay:10.37,2013-02-06 04:05:00,
2013-02-05 23:10:00,6.3,-5.0,30.00,East,92,0.0,0.0,59,0.00,OVC,FEW,0.00,0.0,WeatherDisplay:10.37,2013-02-06 04:10:00,
2013-02-05 23:15:00,6.3,-5.0,30.00,East,92,0.0,0.0,59,0.00,OVC,FEW,0.00,0.0,WeatherDisplay:10.37,2013-02-06 04:15:00,
2013-02-05 23:20:00,6.2,-5.1,30.00,East,92,0.0,0.0,59,0.00,OVC,FEW,0.00,0.0,WeatherDisplay:10.37,2013-02-06 04:20:00,
2013-02-05 23:25:00,6.2,-5.4,30.00,East,92,0.0,0.0,58,0.00,OVC,FEW,0.00,0.0,WeatherDisplay:10.37,2013-02-06 04:25:00,
2013-02-05 23:30:00,6.3,-5.0,30.00,East,92,0.0,0.0,59,0.00,OVC,FEW,0.00,0.0,WeatherDisplay:10.37,2013-02-06 04:30:00,
2013-02-05 23:36:00,6.3,-5.3,30.00,East,92,0.0,0.0,58,0.00,OVC,FEW,0.00,0.0,WeatherDisplay:10.37,2013-02-06 04:36:00,
2013-02-05 23:41:00,6.3,-5.0,30.00,East,92,0.0,0.0,59,0.00,OVC,FEW,0.00,0.0,WeatherDisplay:10.37,2013-02-06 04:41:00,
2013-02-05 23:46:00,6.4,-4.9,30.00,East,92,0.0,0.0,59,0.00,OVC,FEW,0.00,0.0,WeatherDisplay:10.37,2013-02-06 04:46:00,
2013-02-05 23:51:00,6.4,-4.9,30.00,East,92,1.1,0.0,59,0.00,OVC,FEW,0.00,0.0,WeatherDisplay:10.37,2013-02-06 04:51:00,
2013-02-05 23:56:00,6.4,-4.9,30.00,East,92,2.3,2.3,59,0.00,OVC,FEW,0.00,0.0,WeatherDisplay:10.37,2013-02-06 04:56:00,